This is the latest recevied weather packets stored in our database for station/object KF5WCW-1. If no packets are shown the sender has not sent any weather packets the latest 1 day(s).
| Time | Temp. | Humidity | Pressure | Rain* | Wind** | Luminosity | Snow |
|---|---|---|---|---|---|---|---|
| 1778105767 | 2.78° C | 84% | 0 hPa | 0 mm | - | - | - |
| 1778105467 | 2.78° C | 85% | 0 hPa | 0 mm | - | - | - |
| 1778105167 | 2.22° C | 84% | 0 hPa | 0 mm | - | - | - |
| 1778104867 | 2.78° C | 85% | 0 hPa | 0 mm | - | - | - |
| 1778104567 | 2.78° C | 84% | 0 hPa | 0 mm | - | - | - |
| 1778104267 | 2.78° C | 82% | 0 hPa | 0 mm | - | - | - |
| 1778103967 | 2.78° C | 82% | 0 hPa | 0 mm | - | - | - |
| 1778103667 | 2.78° C | 82% | 0 hPa | 0 mm | - | - | - |
| 1778103367 | 2.78° C | 82% | 0 hPa | 0 mm | - | - | - |
| 1778102767 | 2.78° C | 83% | 0 hPa | 0 mm | - | - | - |
| 1778101867 | 2.78° C | 85% | 0 hPa | 0 mm | - | - | - |
| 1778101267 | 2.78° C | 83% | 0 hPa | 0 mm | - | - | - |
| 1778100067 | 1.67° C | 88% | 0 hPa | 0 mm | - | - | - |
| 1778099467 | 1.11° C | 91% | 0 hPa | 0 mm | - | - | - |
| 1778095867 | 1.11° C | 84% | 0 hPa | 0 mm | - | - | - |
| 1778071268 | -1.11° C | 94% | 0 hPa | 0 mm | - | - | - |
| 1778067368 | -1.11° C | 91% | 0 hPa | 1.27 mm | - | - | - |
| 1778066768 | -1.11° C | 95% | 0 hPa | 1.78 mm | - | - | - |
| 1778066468 | -1.11° C | 95% | 0 hPa | 1.78 mm | - | - | - |
| 1778066168 | -1.11° C | 94% | 0 hPa | 1.78 mm | - | - | - |
| 1778065868 | -1.11° C | 94% | 0 hPa | 2.03 mm | - | - | - |
| 1778065568 | -1.11° C | 95% | 0 hPa | 2.03 mm | - | - | - |
| 1778065268 | -1.11° C | 96% | 0 hPa | 2.03 mm | - | - | - |
| 1778064968 | -0.56° C | 96% | 0 hPa | 2.03 mm | - | - | - |
| 1778064668 | -0.56° C | 96% | 0 hPa | 1.78 mm | - | - | - |
* Rain latest hour (hover to see other rain measurements)
** Current wind speed in m/s (hover to see current wind gust speed)